Aérodrome :
LOGIN :

S'inscrire | Disclaimer

   EN    FR    IT 

 










Légende :    VFR   VFR Marginal   IFR   IFR Intensif   IFR Très Intensif
Visi : 
Plafond : 
>= 8 km
>= 3000ft
5 à 8 km
1000 à 3000 ft
1500m à 5 km
500 à 1000 ft
800 à 1500m
200 à 500 ft
< 800m
< 200 ft
Symboles :   Orages  Brouillard  Fortes neiges  Fortes précipitations  Vent > 20 kt
SIGMETs :   Divers  Orages  Givrage  Turbulence  Onde Orograph.  Cendres Volcan.







- Altitude de l'aérodrome : 82 ft
- Code IATA : ALG


DAAG - Alger Houari Boumedienne

DERNIER METAR :
  • 180400Z 00000KT 8000 SCT013 17/17 Q1015

METARs EXPIRÉS :
  • 180330Z 00000KT 8000 SCT013 17/16 Q1015
  • 180300Z 17001KT 7000 BKN010 17/17 Q1015
  • 180230Z 21003KT 7000 BKN010 17/16 Q1015
  • 180200Z 21003KT 8000 BKN010 17/17 Q1015
  • 180130Z 21003KT 8000 SCT013 17/17 Q1015

TAF AMD TAF DAAG
Valide du 18 à 02h jusqu'au 19 à 00h UTC


180241Z 1802/1824 VRB02KT 7000 BKN013
TEMPO 1802/1806 3000 BR BKN008
BECMG 1808/1811 02010KT SCT020
BECMG 1818/1821 VRB02KT
Pas de NOTAMs connus pour ce terrain.



MET'MAP, la Météo Aéronautique d'un coup d'oeil ! - Copyright ORBIFLY Décembre 2007 - Disclaimer

ORBIFLY MET'MAP TEAM :

Programmation & Développement : Alexandra Zaïnal
Conception & Développement : Baudouin d'Aumeries
Co-Programmation & Développement : Marc-Olivier Méhu
Soutien technique & logistique : Manuel Goepfert

Contact : metmap@orbifly.com




SOURCES & CREDITS :

   NOAA